TOCAS weather

Campo di Volo L'ELIKA
Castagnole Piemonte (TO), Piedmont, Italy

Public forecast

Using degrees Celsius for public forecast. Weather courtesy of forecast.io.

Closest aviation weather report (METAR) to Campo di Volo L'ELIKA

Closest report is Torino-Aeritalia Airport, 12.3 nm (22.9 km) N. Retrieved 2020/07/02 10:50 UTC (1 hour ago):

LIMA 021050Z 23005KT 200V280 9999 FEW025 27/18 Q1012

Closest aviation forecast (TAF) to Campo di Volo L'ELIKA

Closest forecast is Turin Airport, 19.5 nm (36.0 km) N. Retrieved 2020/07/02 12:21 UTC (0 seconds ago):

TAF LIMF 021100Z 0212/0312 VRB05KT 9999 SCT040 TEMPO 0212/0224 TSRA